Terminal Aerodrome Forecast
Issued by NWS Wilmington, OH

Current Version | Previous Version | Graphics & Text | Print | Product List | Glossary On
Versions: 1 2 3 4 5 6 7 8 9 10 11 12 13 14 15 16 17 18 19 20 21 22 23 24 25 26 27 28 29 30 31
860
FTUS41 KILN 261131
TAFILN
TAF
KILN 261131Z 2612/2712 23012KT P6SM BKN050
     FM261800 27010KT P6SM VCTS BKN050CB
      TEMPO 2622/2624 3SM -TSRA BKN035CB
     FM270000 VRB04KT P6SM VCSH SCT035 BKN100
     FM270300 04009KT P6SM OVC018=

USA.gov is the U.S. government's official web portal to all federal, state and local government web resources and services.